Quick Links (Output Below):   Max & Min Temps   /   Climate Reports   /   Zone Forecasts
River Forecasts   /   Forestry Forecasts   /   Aviation Forecasts   /   Radars   /   Features

Terminal Aerodrome Forecast (Pine Bluff)

Pick a Site:
Arkadelphia | El Dorado | Fayetteville | Fort Smith | Harrison | Highfill | Hot Springs | Jonesboro
Little Rock | Monticello | Mountain Home | Pine Bluff | Texarkana
 Forecast 

KPBF 021733Z 0218/0318 16005KT P6SM SCT050 SCT250
     FM030000 VRB03KT P6SM SCT250=


 Latest METARs (Observations) 
How to Decode METARs
18Z KPBF 021753Z AUTO 10006KT 10SM CLR 34/18 A2997 RMK AO2 SLP144
         T03440178 10344 20200 58010 $
         
17Z KPBF 021653Z AUTO 00000KT 10SM CLR 33/19 A2998 RMK AO2 SLP149
         T03330189 $
         
16Z KPBF 021553Z AUTO VRB03KT 10SM CLR 33/19 A2999 RMK AO2 SLP153
         T03280189 $
         
15Z KPBF 021453Z AUTO VRB03KT 10SM CLR 31/21 A3000 RMK AO2 SLP155
         T03060206 51009 $
         
14Z KPBF 021353Z AUTO 00000KT 10SM CLR 28/21 A2999 RMK AO2 SLP153
         T02830206 $
         
13Z KPBF 021253Z AUTO 00000KT 10SM CLR 24/21 A2998 RMK AO2 SLP149
         T02390211 $
         
12Z KPBF 021153Z AUTO 00000KT 10SM CLR 20/19 A2997 RMK AO2 SLP145
         T02000189 10228 20194 53006 $
         
11Z KPBF 021053Z AUTO 00000KT 10SM CLR 20/18 A2996 RMK AO2 SLP142
         T02000183 $
         
10Z KPBF 020953Z AUTO 00000KT 10SM CLR 20/19 A2995 RMK AO2 SLP140
         T02000189 $
         
09Z KPBF 020853Z AUTO 00000KT 10SM CLR 21/19 A2995 RMK AO2 SLP139
         T02060189 58005 $
         
***** Today's Observations (Above) *****


Back to Main Page
http://www.srh.noaa.gov/lzk/qfcst.php

USA.gov is the U.S. government's official web portal to all federal, state and local government web resources and services.